sensor_id;sensor_type;location;lat;lon;timestamp;P1;durP1;ratioP1;P2;durP2;ratioP2
7316;SDS011;3699;51.462;6.696;2023-03-01T00:02:26;11.47;;;8.87;;
7316;SDS011;3699;51.462;6.696;2023-03-01T00:04:54;15.07;;;8.93;;
7316;SDS011;3699;51.462;6.696;2023-03-01T00:07:21;12.47;;;9.03;;
7316;SDS011;3699;51.462;6.696;2023-03-01T00:09:48;15.10;;;9.37;;
7316;SDS011;3699;51.462;6.696;2023-03-01T00:12:14;13.30;;;8.53;;
7316;SDS011;3699;51.462;6.696;2023-03-01T00:14:41;17.10;;;8.90;;
7316;SDS011;3699;51.462;6.696;2023-03-01T00:17:07;12.27;;;8.90;;
7316;SDS011;3699;51.462;6.696;2023-03-01T00:19:34;15.27;;;9.60;;
7316;SDS011;3699;51.462;6.696;2023-03-01T00:22:02;14.03;;;9.80;;
7316;SDS011;3699;51.462;6.696;2023-03-01T00:24:29;13.67;;;9.00;;
7316;SDS011;3699;51.462;6.696;2023-03-01T00:26:56;13.20;;;9.43;;
7316;SDS011;3699;51.462;6.696;2023-03-01T00:29:23;15.47;;;9.30;;
7316;SDS011;3699;51.462;6.696;2023-03-01T00:31:50;15.80;;;9.10;;
7316;SDS011;3699;51.462;6.696;2023-03-01T00:34:17;13.23;;;9.20;;
7316;SDS011;3699;51.462;6.696;2023-03-01T00:36:44;15.67;;;9.00;;
7316;SDS011;3699;51.462;6.696;2023-03-01T00:39:13;13.67;;;9.00;;
7316;SDS011;3699;51.462;6.696;2023-03-01T00:41:41;14.17;;;9.70;;
7316;SDS011;3699;51.462;6.696;2023-03-01T00:44:09;14.13;;;9.23;;
7316;SDS011;3699;51.462;6.696;2023-03-01T00:46:36;16.00;;;9.03;;
7316;SDS011;3699;51.462;6.696;2023-03-01T00:49:03;13.63;;;9.87;;
7316;SDS011;3699;51.462;6.696;2023-03-01T00:51:30;12.67;;;9.13;;
7316;SDS011;3699;51.462;6.696;2023-03-01T00:53:58;15.77;;;9.80;;
7316;SDS011;3699;51.462;6.696;2023-03-01T00:56:27;12.87;;;9.03;;
7316;SDS011;3699;51.462;6.696;2023-03-01T00:58:54;16.57;;;10.23;;
7316;SDS011;3699;51.462;6.696;2023-03-01T01:01:22;14.47;;;10.03;;
7316;SDS011;3699;51.462;6.696;2023-03-01T01:03:53;16.50;;;9.67;;
7316;SDS011;3699;51.462;6.696;2023-03-01T01:06:21;15.53;;;9.33;;
7316;SDS011;3699;51.462;6.696;2023-03-01T01:08:49;14.60;;;9.53;;
7316;SDS011;3699;51.462;6.696;2023-03-01T01:11:17;13.90;;;9.10;;
7316;SDS011;3699;51.462;6.696;2023-03-01T01:13:45;16.57;;;9.20;;
7316;SDS011;3699;51.462;6.696;2023-03-01T01:16:13;13.53;;;8.97;;
7316;SDS011;3699;51.462;6.696;2023-03-01T01:18:40;11.90;;;8.83;;
7316;SDS011;3699;51.462;6.696;2023-03-01T01:21:07;13.67;;;9.20;;
7316;SDS011;3699;51.462;6.696;2023-03-01T01:23:36;14.03;;;9.73;;
7316;SDS011;3699;51.462;6.696;2023-03-01T01:26:03;18.73;;;9.90;;
7316;SDS011;3699;51.462;6.696;2023-03-01T01:28:31;13.53;;;9.27;;
7316;SDS011;3699;51.462;6.696;2023-03-01T01:30:59;16.37;;;10.07;;
7316;SDS011;3699;51.462;6.696;2023-03-01T01:33:26;17.60;;;10.33;;
7316;SDS011;3699;51.462;6.696;2023-03-01T01:35:53;15.63;;;9.73;;
7316;SDS011;3699;51.462;6.696;2023-03-01T01:38:20;14.30;;;9.53;;
7316;SDS011;3699;51.462;6.696;2023-03-01T01:40:47;15.00;;;9.67;;
7316;SDS011;3699;51.462;6.696;2023-03-01T01:43:16;11.70;;;9.10;;
7316;SDS011;3699;51.462;6.696;2023-03-01T01:45:46;14.87;;;9.97;;
7316;SDS011;3699;51.462;6.696;2023-03-01T01:48:15;14.43;;;8.87;;
7316;SDS011;3699;51.462;6.696;2023-03-01T01:50:44;14.63;;;9.03;;
7316;SDS011;3699;51.462;6.696;2023-03-01T01:53:16;14.57;;;9.30;;
7316;SDS011;3699;51.462;6.696;2023-03-01T01:55:46;13.50;;;9.30;;
7316;SDS011;3699;51.462;6.696;2023-03-01T01:58:18;15.50;;;9.83;;
7316;SDS011;3699;51.462;6.696;2023-03-01T02:00:46;16.20;;;9.90;;
7316;SDS011;3699;51.462;6.696;2023-03-01T02:03:17;16.43;;;9.63;;
7316;SDS011;3699;51.462;6.696;2023-03-01T02:05:47;14.07;;;9.67;;
7316;SDS011;3699;51.462;6.696;2023-03-01T02:08:17;13.03;;;8.87;;
7316;SDS011;3699;51.462;6.696;2023-03-01T02:10:46;14.40;;;9.73;;
7316;SDS011;3699;51.462;6.696;2023-03-01T02:13:15;15.80;;;10.73;;
7316;SDS011;3699;51.462;6.696;2023-03-01T02:15:42;21.87;;;9.90;;
7316;SDS011;3699;51.462;6.696;2023-03-01T02:18:10;16.23;;;9.93;;
7316;SDS011;3699;51.462;6.696;2023-03-01T02:20:43;17.23;;;10.30;;
7316;SDS011;3699;51.462;6.696;2023-03-01T02:23:16;12.57;;;8.67;;
7316;SDS011;3699;51.462;6.696;2023-03-01T02:25:46;13.70;;;10.10;;
7316;SDS011;3699;51.462;6.696;2023-03-01T02:28:23;19.50;;;10.27;;
7316;SDS011;3699;51.462;6.696;2023-03-01T02:30:55;14.53;;;9.30;;
7316;SDS011;3699;51.462;6.696;2023-03-01T02:33:40;16.90;;;9.47;;
7316;SDS011;3699;51.462;6.696;2023-03-01T02:36:09;18.47;;;9.60;;
7316;SDS011;3699;51.462;6.696;2023-03-01T02:38:39;15.20;;;9.00;;
7316;SDS011;3699;51.462;6.696;2023-03-01T02:41:06;18.27;;;9.50;;
7316;SDS011;3699;51.462;6.696;2023-03-01T02:43:36;14.43;;;9.77;;
7316;SDS011;3699;51.462;6.696;2023-03-01T02:46:05;13.83;;;9.50;;
7316;SDS011;3699;51.462;6.696;2023-03-01T02:48:39;14.03;;;9.10;;
7316;SDS011;3699;51.462;6.696;2023-03-01T02:51:09;18.43;;;10.50;;
7316;SDS011;3699;51.462;6.696;2023-03-01T02:53:45;16.43;;;9.70;;
7316;SDS011;3699;51.462;6.696;2023-03-01T02:56:19;16.90;;;9.63;;
7316;SDS011;3699;51.462;6.696;2023-03-01T02:58:47;16.27;;;9.73;;
7316;SDS011;3699;51.462;6.696;2023-03-01T03:01:16;14.23;;;9.23;;
7316;SDS011;3699;51.462;6.696;2023-03-01T03:03:43;17.80;;;10.87;;
7316;SDS011;3699;51.462;6.696;2023-03-01T03:06:10;17.83;;;11.00;;
7316;SDS011;3699;51.462;6.696;2023-03-01T03:08:36;14.63;;;10.00;;
7316;SDS011;3699;51.462;6.696;2023-03-01T03:11:03;16.83;;;10.13;;
7316;SDS011;3699;51.462;6.696;2023-03-01T03:13:30;16.13;;;10.30;;
7316;SDS011;3699;51.462;6.696;2023-03-01T03:15:58;14.23;;;9.83;;
7316;SDS011;3699;51.462;6.696;2023-03-01T03:18:25;17.33;;;10.43;;
7316;SDS011;3699;51.462;6.696;2023-03-01T03:20:52;16.27;;;9.97;;
7316;SDS011;3699;51.462;6.696;2023-03-01T03:23:20;14.80;;;9.23;;
7316;SDS011;3699;51.462;6.696;2023-03-01T03:25:47;17.63;;;9.83;;
7316;SDS011;3699;51.462;6.696;2023-03-01T03:28:15;14.57;;;10.43;;
7316;SDS011;3699;51.462;6.696;2023-03-01T03:30:42;15.97;;;10.10;;
7316;SDS011;3699;51.462;6.696;2023-03-01T03:33:11;17.27;;;9.97;;
7316;SDS011;3699;51.462;6.696;2023-03-01T03:35:39;15.57;;;10.50;;
7316;SDS011;3699;51.462;6.696;2023-03-01T03:38:08;17.67;;;10.10;;
7316;SDS011;3699;51.462;6.696;2023-03-01T03:40:41;17.80;;;9.70;;
7316;SDS011;3699;51.462;6.696;2023-03-01T03:43:10;16.40;;;10.07;;
7316;SDS011;3699;51.462;6.696;2023-03-01T03:45:38;16.60;;;11.10;;
7316;SDS011;3699;51.462;6.696;2023-03-01T03:48:06;15.40;;;10.23;;
7316;SDS011;3699;51.462;6.696;2023-03-01T03:50:35;17.87;;;10.73;;
7316;SDS011;3699;51.462;6.696;2023-03-01T03:53:04;16.33;;;10.70;;
7316;SDS011;3699;51.462;6.696;2023-03-01T03:55:32;18.23;;;10.40;;
7316;SDS011;3699;51.462;6.696;2023-03-01T03:57:59;16.63;;;11.07;;
7316;SDS011;3699;51.462;6.696;2023-03-01T04:00:31;17.37;;;10.20;;
7316;SDS011;3699;51.462;6.696;2023-03-01T04:03:00;18.43;;;10.10;;
7316;SDS011;3699;51.462;6.696;2023-03-01T04:05:27;18.53;;;10.53;;
7316;SDS011;3699;51.462;6.696;2023-03-01T04:07:55;14.93;;;10.80;;
7316;SDS011;3699;51.462;6.696;2023-03-01T04:10:27;17.43;;;10.27;;
7316;SDS011;3699;51.462;6.696;2023-03-01T04:12:54;16.80;;;10.87;;
7316;SDS011;3699;51.462;6.696;2023-03-01T04:15:22;18.33;;;10.83;;
7316;SDS011;3699;51.462;6.696;2023-03-01T04:17:49;17.90;;;10.07;;
7316;SDS011;3699;51.462;6.696;2023-03-01T04:20:18;19.77;;;10.87;;
7316;SDS011;3699;51.462;6.696;2023-03-01T04:22:50;15.97;;;10.27;;
7316;SDS011;3699;51.462;6.696;2023-03-01T04:25:18;14.83;;;9.53;;
7316;SDS011;3699;51.462;6.696;2023-03-01T04:27:45;19.77;;;10.37;;
7316;SDS011;3699;51.462;6.696;2023-03-01T04:30:12;17.57;;;9.87;;
7316;SDS011;3699;51.462;6.696;2023-03-01T04:32:39;20.40;;;10.40;;
7316;SDS011;3699;51.462;6.696;2023-03-01T04:35:06;16.07;;;10.50;;
7316;SDS011;3699;51.462;6.696;2023-03-01T04:37:34;16.73;;;9.37;;
7316;SDS011;3699;51.462;6.696;2023-03-01T04:40:00;17.00;;;9.27;;
7316;SDS011;3699;51.462;6.696;2023-03-01T04:42:38;14.40;;;9.67;;
7316;SDS011;3699;51.462;6.696;2023-03-01T04:45:06;15.47;;;10.80;;
7316;SDS011;3699;51.462;6.696;2023-03-01T04:47:37;18.00;;;9.70;;
7316;SDS011;3699;51.462;6.696;2023-03-01T04:50:05;16.83;;;10.37;;
7316;SDS011;3699;51.462;6.696;2023-03-01T04:52:33;15.80;;;10.17;;
7316;SDS011;3699;51.462;6.696;2023-03-01T04:55:00;16.73;;;10.27;;
7316;SDS011;3699;51.462;6.696;2023-03-01T04:57:26;15.40;;;9.93;;
7316;SDS011;3699;51.462;6.696;2023-03-01T04:59:54;21.43;;;10.10;;
7316;SDS011;3699;51.462;6.696;2023-03-01T05:02:21;14.63;;;9.47;;
7316;SDS011;3699;51.462;6.696;2023-03-01T05:04:48;14.33;;;9.10;;
7316;SDS011;3699;51.462;6.696;2023-03-01T05:07:15;16.67;;;9.93;;
7316;SDS011;3699;51.462;6.696;2023-03-01T05:09:44;18.17;;;9.57;;
7316;SDS011;3699;51.462;6.696;2023-03-01T05:12:11;21.17;;;10.40;;
7316;SDS011;3699;51.462;6.696;2023-03-01T05:14:38;15.00;;;10.03;;
7316;SDS011;3699;51.462;6.696;2023-03-01T05:17:06;19.03;;;10.33;;
7316;SDS011;3699;51.462;6.696;2023-03-01T05:19:33;16.30;;;10.13;;
7316;SDS011;3699;51.462;6.696;2023-03-01T05:22:00;17.57;;;10.03;;
7316;SDS011;3699;51.462;6.696;2023-03-01T05:24:30;15.90;;;9.37;;
7316;SDS011;3699;51.462;6.696;2023-03-01T05:26:58;22.70;;;10.77;;
7316;SDS011;3699;51.462;6.696;2023-03-01T05:29:26;22.90;;;11.17;;
7316;SDS011;3699;51.462;6.696;2023-03-01T05:31:54;14.40;;;9.50;;
7316;SDS011;3699;51.462;6.696;2023-03-01T05:34:25;15.67;;;9.67;;
7316;SDS011;3699;51.462;6.696;2023-03-01T05:36:54;16.13;;;9.97;;
7316;SDS011;3699;51.462;6.696;2023-03-01T05:39:21;18.47;;;11.33;;
7316;SDS011;3699;51.462;6.696;2023-03-01T05:41:51;17.30;;;10.77;;
7316;SDS011;3699;51.462;6.696;2023-03-01T05:44:18;17.63;;;10.13;;
7316;SDS011;3699;51.462;6.696;2023-03-01T05:46:45;14.87;;;9.70;;
7316;SDS011;3699;51.462;6.696;2023-03-01T05:49:12;16.23;;;10.13;;
7316;SDS011;3699;51.462;6.696;2023-03-01T05:51:40;16.83;;;10.10;;
7316;SDS011;3699;51.462;6.696;2023-03-01T05:54:16;16.83;;;10.20;;
7316;SDS011;3699;51.462;6.696;2023-03-01T05:56:43;15.17;;;9.90;;
7316;SDS011;3699;51.462;6.696;2023-03-01T05:59:10;16.03;;;10.27;;
7316;SDS011;3699;51.462;6.696;2023-03-01T06:01:38;19.80;;;10.20;;
7316;SDS011;3699;51.462;6.696;2023-03-01T06:04:05;17.47;;;10.83;;
7316;SDS011;3699;51.462;6.696;2023-03-01T06:06:33;15.63;;;9.80;;
7316;SDS011;3699;51.462;6.696;2023-03-01T06:09:03;15.03;;;9.97;;
7316;SDS011;3699;51.462;6.696;2023-03-01T06:11:33;16.43;;;10.20;;
7316;SDS011;3699;51.462;6.696;2023-03-01T06:13:59;15.30;;;10.63;;
7316;SDS011;3699;51.462;6.696;2023-03-01T06:16:26;14.93;;;10.40;;
7316;SDS011;3699;51.462;6.696;2023-03-01T06:18:53;17.27;;;10.57;;
7316;SDS011;3699;51.462;6.696;2023-03-01T06:21:19;23.00;;;10.67;;
7316;SDS011;3699;51.462;6.696;2023-03-01T06:23:46;17.57;;;10.73;;
7316;SDS011;3699;51.462;6.696;2023-03-01T06:26:14;27.00;;;10.93;;
7316;SDS011;3699;51.462;6.696;2023-03-01T06:28:41;14.73;;;10.37;;
7316;SDS011;3699;51.462;6.696;2023-03-01T06:31:10;18.80;;;10.43;;
7316;SDS011;3699;51.462;6.696;2023-03-01T06:33:37;17.03;;;10.47;;
7316;SDS011;3699;51.462;6.696;2023-03-01T06:36:04;16.50;;;9.97;;
7316;SDS011;3699;51.462;6.696;2023-03-01T06:38:31;18.73;;;11.67;;
7316;SDS011;3699;51.462;6.696;2023-03-01T06:40:58;17.23;;;10.73;;
7316;SDS011;3699;51.462;6.696;2023-03-01T06:43:27;18.83;;;12.70;;
7316;SDS011;3699;51.462;6.696;2023-03-01T06:45:54;18.47;;;10.97;;
7316;SDS011;3699;51.462;6.696;2023-03-01T06:48:21;21.33;;;11.50;;
7316;SDS011;3699;51.462;6.696;2023-03-01T06:50:47;18.00;;;10.97;;
7316;SDS011;3699;51.462;6.696;2023-03-01T06:53:14;22.90;;;11.13;;
7316;SDS011;3699;51.462;6.696;2023-03-01T06:55:41;16.83;;;10.50;;
7316;SDS011;3699;51.462;6.696;2023-03-01T06:58:08;18.13;;;11.03;;
7316;SDS011;3699;51.462;6.696;2023-03-01T07:00:36;20.00;;;11.30;;
7316;SDS011;3699;51.462;6.696;2023-03-01T07:03:05;22.27;;;10.73;;
7316;SDS011;3699;51.462;6.696;2023-03-01T07:05:32;16.13;;;10.37;;
7316;SDS011;3699;51.462;6.696;2023-03-01T07:07:59;18.47;;;11.27;;
7316;SDS011;3699;51.462;6.696;2023-03-01T07:10:26;20.03;;;11.97;;
7316;SDS011;3699;51.462;6.696;2023-03-01T07:12:54;17.83;;;11.27;;
7316;SDS011;3699;51.462;6.696;2023-03-01T07:15:21;20.37;;;11.50;;
7316;SDS011;3699;51.462;6.696;2023-03-01T07:17:49;20.93;;;11.50;;
7316;SDS011;3699;51.462;6.696;2023-03-01T07:20:16;23.83;;;11.83;;
7316;SDS011;3699;51.462;6.696;2023-03-01T07:22:43;15.43;;;10.67;;
7316;SDS011;3699;51.462;6.696;2023-03-01T07:25:10;15.90;;;10.30;;
7316;SDS011;3699;51.462;6.696;2023-03-01T07:27:37;20.27;;;10.83;;
7316;SDS011;3699;51.462;6.696;2023-03-01T07:30:04;20.07;;;10.67;;
7316;SDS011;3699;51.462;6.696;2023-03-01T07:32:31;16.57;;;10.83;;
7316;SDS011;3699;51.462;6.696;2023-03-01T07:35:00;18.63;;;11.43;;
7316;SDS011;3699;51.462;6.696;2023-03-01T07:37:26;15.43;;;9.47;;
7316;SDS011;3699;51.462;6.696;2023-03-01T07:40:02;17.03;;;10.90;;
7316;SDS011;3699;51.462;6.696;2023-03-01T07:42:29;20.83;;;10.63;;
7316;SDS011;3699;51.462;6.696;2023-03-01T07:44:56;25.43;;;12.03;;
7316;SDS011;3699;51.462;6.696;2023-03-01T07:47:23;20.17;;;10.43;;
7316;SDS011;3699;51.462;6.696;2023-03-01T07:49:49;16.57;;;10.37;;
7316;SDS011;3699;51.462;6.696;2023-03-01T07:52:17;16.07;;;9.97;;
7316;SDS011;3699;51.462;6.696;2023-03-01T07:54:44;17.43;;;10.43;;
7316;SDS011;3699;51.462;6.696;2023-03-01T07:57:11;19.00;;;10.53;;
7316;SDS011;3699;51.462;6.696;2023-03-01T07:59:37;14.13;;;10.00;;
7316;SDS011;3699;51.462;6.696;2023-03-01T08:02:04;20.60;;;11.17;;
7316;SDS011;3699;51.462;6.696;2023-03-01T08:04:31;15.97;;;10.07;;
7316;SDS011;3699;51.462;6.696;2023-03-01T08:06:58;15.23;;;9.43;;
7316;SDS011;3699;51.462;6.696;2023-03-01T08:09:33;16.87;;;10.40;;
7316;SDS011;3699;51.462;6.696;2023-03-01T08:12:01;18.07;;;11.23;;
7316;SDS011;3699;51.462;6.696;2023-03-01T08:14:29;20.90;;;12.57;;
7316;SDS011;3699;51.462;6.696;2023-03-01T08:16:56;20.50;;;11.90;;
7316;SDS011;3699;51.462;6.696;2023-03-01T08:19:22;17.67;;;10.97;;
7316;SDS011;3699;51.462;6.696;2023-03-01T08:21:49;16.80;;;10.93;;
7316;SDS011;3699;51.462;6.696;2023-03-01T08:24:16;18.37;;;10.93;;
7316;SDS011;3699;51.462;6.696;2023-03-01T08:26:44;14.70;;;9.90;;
7316;SDS011;3699;51.462;6.696;2023-03-01T08:29:11;17.07;;;10.27;;
7316;SDS011;3699;51.462;6.696;2023-03-01T08:31:38;19.77;;;11.17;;
7316;SDS011;3699;51.462;6.696;2023-03-01T08:34:06;16.57;;;11.23;;
7316;SDS011;3699;51.462;6.696;2023-03-01T08:36:36;15.23;;;10.63;;
7316;SDS011;3699;51.462;6.696;2023-03-01T08:39:04;19.77;;;11.67;;
7316;SDS011;3699;51.462;6.696;2023-03-01T08:41:31;19.40;;;11.37;;
7316;SDS011;3699;51.462;6.696;2023-03-01T08:43:59;20.93;;;10.80;;
7316;SDS011;3699;51.462;6.696;2023-03-01T08:46:26;18.47;;;9.67;;
7316;SDS011;3699;51.462;6.696;2023-03-01T08:48:54;18.30;;;10.90;;
7316;SDS011;3699;51.462;6.696;2023-03-01T08:51:21;16.63;;;10.73;;
7316;SDS011;3699;51.462;6.696;2023-03-01T08:53:48;13.77;;;9.20;;
7316;SDS011;3699;51.462;6.696;2023-03-01T08:56:15;14.93;;;10.10;;
7316;SDS011;3699;51.462;6.696;2023-03-01T08:58:44;19.87;;;10.70;;
7316;SDS011;3699;51.462;6.696;2023-03-01T09:01:14;16.60;;;10.33;;
7316;SDS011;3699;51.462;6.696;2023-03-01T09:03:42;17.63;;;10.73;;
7316;SDS011;3699;51.462;6.696;2023-03-01T09:06:09;15.20;;;10.60;;
7316;SDS011;3699;51.462;6.696;2023-03-01T09:08:39;12.27;;;9.27;;
7316;SDS011;3699;51.462;6.696;2023-03-01T09:11:09;14.40;;;9.60;;
7316;SDS011;3699;51.462;6.696;2023-03-01T09:13:36;19.67;;;10.03;;
7316;SDS011;3699;51.462;6.696;2023-03-01T09:16:05;14.30;;;10.17;;
7316;SDS011;3699;51.462;6.696;2023-03-01T09:18:34;16.73;;;9.97;;
7316;SDS011;3699;51.462;6.696;2023-03-01T09:21:02;15.60;;;9.60;;
7316;SDS011;3699;51.462;6.696;2023-03-01T09:23:32;15.10;;;8.77;;
7316;SDS011;3699;51.462;6.696;2023-03-01T09:25:59;15.30;;;10.27;;
7316;SDS011;3699;51.462;6.696;2023-03-01T09:28:25;16.27;;;9.33;;
7316;SDS011;3699;51.462;6.696;2023-03-01T09:30:52;15.30;;;9.33;;
7316;SDS011;3699;51.462;6.696;2023-03-01T09:33:18;11.60;;;8.50;;
7316;SDS011;3699;51.462;6.696;2023-03-01T09:35:47;13.23;;;9.10;;
7316;SDS011;3699;51.462;6.696;2023-03-01T09:38:13;13.97;;;8.80;;
7316;SDS011;3699;51.462;6.696;2023-03-01T09:40:42;14.63;;;9.47;;
7316;SDS011;3699;51.462;6.696;2023-03-01T09:43:13;14.33;;;9.67;;
7316;SDS011;3699;51.462;6.696;2023-03-01T09:45:44;12.87;;;8.57;;
7316;SDS011;3699;51.462;6.696;2023-03-01T09:48:15;14.60;;;9.17;;
7316;SDS011;3699;51.462;6.696;2023-03-01T09:50:44;12.97;;;8.33;;
7316;SDS011;3699;51.462;6.696;2023-03-01T09:53:13;19.77;;;8.87;;
7316;SDS011;3699;51.462;6.696;2023-03-01T09:55:43;15.37;;;9.20;;
7316;SDS011;3699;51.462;6.696;2023-03-01T10:00:57;17.07;;;9.47;;
7316;SDS011;3699;51.462;6.696;2023-03-01T10:03:31;10.30;;;7.90;;
7316;SDS011;3699;51.462;6.696;2023-03-01T10:06:08;13.10;;;9.00;;
7316;SDS011;3699;51.462;6.696;2023-03-01T10:08:40;14.80;;;8.60;;
7316;SDS011;3699;51.462;6.696;2023-03-01T10:11:17;13.90;;;9.13;;
7316;SDS011;3699;51.462;6.696;2023-03-01T10:13:48;12.47;;;8.83;;
7316;SDS011;3699;51.462;6.696;2023-03-01T10:16:21;15.23;;;9.13;;
7316;SDS011;3699;51.462;6.696;2023-03-01T10:18:55;14.90;;;9.10;;
7316;SDS011;3699;51.462;6.696;2023-03-01T10:21:26;13.47;;;9.03;;
7316;SDS011;3699;51.462;6.696;2023-03-01T10:23:56;15.50;;;8.77;;
7316;SDS011;3699;51.462;6.696;2023-03-01T10:26:40;14.63;;;8.53;;
7316;SDS011;3699;51.462;6.696;2023-03-01T10:29:14;13.17;;;8.83;;
7316;SDS011;3699;51.462;6.696;2023-03-01T10:31:42;11.47;;;8.40;;
7316;SDS011;3699;51.462;6.696;2023-03-01T10:34:11;12.67;;;8.17;;
7316;SDS011;3699;51.462;6.696;2023-03-01T10:36:42;12.93;;;7.97;;
7316;SDS011;3699;51.462;6.696;2023-03-01T10:39:13;15.23;;;9.03;;
7316;SDS011;3699;51.462;6.696;2023-03-01T10:41:56;13.97;;;8.43;;
7316;SDS011;3699;51.462;6.696;2023-03-01T10:44:35;14.93;;;8.13;;
7316;SDS011;3699;51.462;6.696;2023-03-01T10:47:14;12.63;;;7.87;;
7316;SDS011;3699;51.462;6.696;2023-03-01T10:49:51;13.40;;;8.53;;
7316;SDS011;3699;51.462;6.696;2023-03-01T10:52:23;12.50;;;8.27;;
7316;SDS011;3699;51.462;6.696;2023-03-01T10:54:52;14.70;;;8.40;;
7316;SDS011;3699;51.462;6.696;2023-03-01T10:57:24;13.43;;;9.30;;
7316;SDS011;3699;51.462;6.696;2023-03-01T11:00:01;14.77;;;8.83;;
7316;SDS011;3699;51.462;6.696;2023-03-01T11:02:45;12.93;;;8.93;;
7316;SDS011;3699;51.462;6.696;2023-03-01T11:05:16;13.47;;;9.17;;
7316;SDS011;3699;51.462;6.696;2023-03-01T11:07:51;13.40;;;8.87;;
7316;SDS011;3699;51.462;6.696;2023-03-01T11:10:20;11.17;;;8.07;;
7316;SDS011;3699;51.462;6.696;2023-03-01T11:12:48;12.70;;;8.40;;
7316;SDS011;3699;51.462;6.696;2023-03-01T11:15:20;17.00;;;8.77;;
7316;SDS011;3699;51.462;6.696;2023-03-01T11:17:49;15.97;;;8.43;;
7316;SDS011;3699;51.462;6.696;2023-03-01T11:20:19;15.63;;;7.83;;
7316;SDS011;3699;51.462;6.696;2023-03-01T11:22:53;10.27;;;7.67;;
7316;SDS011;3699;51.462;6.696;2023-03-01T11:25:23;11.23;;;7.50;;
7316;SDS011;3699;51.462;6.696;2023-03-01T11:27:53;15.73;;;8.03;;
7316;SDS011;3699;51.462;6.696;2023-03-01T11:30:21;11.10;;;7.70;;
7316;SDS011;3699;51.462;6.696;2023-03-01T11:32:52;11.77;;;7.87;;
7316;SDS011;3699;51.462;6.696;2023-03-01T11:35:26;13.83;;;8.63;;
7316;SDS011;3699;51.462;6.696;2023-03-01T11:37:59;26.37;;;8.67;;
7316;SDS011;3699;51.462;6.696;2023-03-01T11:40:37;17.97;;;8.40;;
7316;SDS011;3699;51.462;6.696;2023-03-01T11:43:10;10.17;;;7.37;;
7316;SDS011;3699;51.462;6.696;2023-03-01T11:45:43;12.80;;;7.80;;
7316;SDS011;3699;51.462;6.696;2023-03-01T11:48:25;10.40;;;7.00;;
7316;SDS011;3699;51.462;6.696;2023-03-01T11:51:09;11.77;;;8.07;;
7316;SDS011;3699;51.462;6.696;2023-03-01T11:53:49;12.07;;;7.23;;
7316;SDS011;3699;51.462;6.696;2023-03-01T11:56:27;9.03;;;6.77;;
7316;SDS011;3699;51.462;6.696;2023-03-01T12:01:59;10.27;;;7.20;;
7316;SDS011;3699;51.462;6.696;2023-03-01T12:04:48;10.07;;;6.97;;
7316;SDS011;3699;51.462;6.696;2023-03-01T12:07:30;12.20;;;7.57;;
7316;SDS011;3699;51.462;6.696;2023-03-01T12:10:14;17.00;;;7.93;;
7316;SDS011;3699;51.462;6.696;2023-03-01T12:12:48;10.97;;;7.73;;
7316;SDS011;3699;51.462;6.696;2023-03-01T12:15:46;11.83;;;7.63;;
7316;SDS011;3699;51.462;6.696;2023-03-01T12:21:27;11.80;;;7.53;;
7316;SDS011;3699;51.462;6.696;2023-03-01T12:24:08;10.70;;;7.50;;
7316;SDS011;3699;51.462;6.696;2023-03-01T12:26:55;10.63;;;7.43;;
7316;SDS011;3699;51.462;6.696;2023-03-01T12:29:34;10.57;;;7.57;;
7316;SDS011;3699;51.462;6.696;2023-03-01T12:32:25;12.30;;;7.37;;
7316;SDS011;3699;51.462;6.696;2023-03-01T12:37:59;11.40;;;7.77;;
7316;SDS011;3699;51.462;6.696;2023-03-01T12:40:42;10.80;;;6.97;;
7316;SDS011;3699;51.462;6.696;2023-03-01T12:43:36;11.33;;;7.60;;
7316;SDS011;3699;51.462;6.696;2023-03-01T12:46:20;11.87;;;7.27;;
7316;SDS011;3699;51.462;6.696;2023-03-01T12:48:58;13.73;;;8.50;;
7316;SDS011;3699;51.462;6.696;2023-03-01T12:51:30;15.07;;;7.70;;
7316;SDS011;3699;51.462;6.696;2023-03-01T12:53:59;11.67;;;7.67;;
7316;SDS011;3699;51.462;6.696;2023-03-01T12:56:34;12.37;;;7.90;;
7316;SDS011;3699;51.462;6.696;2023-03-01T12:59:07;10.37;;;7.47;;
7316;SDS011;3699;51.462;6.696;2023-03-01T13:01:42;13.83;;;8.60;;
7316;SDS011;3699;51.462;6.696;2023-03-01T13:04:20;12.07;;;7.97;;
7316;SDS011;3699;51.462;6.696;2023-03-01T13:06:55;9.57;;;7.30;;
7316;SDS011;3699;51.462;6.696;2023-03-01T13:09:29;13.27;;;7.83;;
7316;SDS011;3699;51.462;6.696;2023-03-01T13:12:01;14.03;;;8.77;;
7316;SDS011;3699;51.462;6.696;2023-03-01T13:14:36;9.87;;;7.40;;
7316;SDS011;3699;51.462;6.696;2023-03-01T13:17:20;10.77;;;7.37;;
7316;SDS011;3699;51.462;6.696;2023-03-01T13:19:57;14.47;;;7.83;;
7316;SDS011;3699;51.462;6.696;2023-03-01T13:22:25;10.37;;;7.33;;
7316;SDS011;3699;51.462;6.696;2023-03-01T13:25:00;10.67;;;7.77;;
7316;SDS011;3699;51.462;6.696;2023-03-01T13:27:37;11.40;;;7.50;;
7316;SDS011;3699;51.462;6.696;2023-03-01T13:30:12;19.13;;;7.50;;
7316;SDS011;3699;51.462;6.696;2023-03-01T13:33:33;10.17;;;7.00;;
7316;SDS011;3699;51.462;6.696;2023-03-01T13:36:08;11.13;;;6.93;;
7316;SDS011;3699;51.462;6.696;2023-03-01T13:38:45;11.60;;;7.47;;
7316;SDS011;3699;51.462;6.696;2023-03-01T13:41:13;9.03;;;6.83;;
7316;SDS011;3699;51.462;6.696;2023-03-01T13:43:41;12.53;;;6.67;;
7316;SDS011;3699;51.462;6.696;2023-03-01T13:46:12;12.17;;;7.47;;
7316;SDS011;3699;51.462;6.696;2023-03-01T13:48:44;9.63;;;7.87;;
7316;SDS011;3699;51.462;6.696;2023-03-01T13:51:13;11.13;;;7.37;;
7316;SDS011;3699;51.462;6.696;2023-03-01T13:53:40;11.33;;;7.67;;
7316;SDS011;3699;51.462;6.696;2023-03-01T13:56:11;10.93;;;8.07;;
7316;SDS011;3699;51.462;6.696;2023-03-01T13:58:44;13.67;;;7.77;;
7316;SDS011;3699;51.462;6.696;2023-03-01T14:01:22;13.03;;;8.10;;
7316;SDS011;3699;51.462;6.696;2023-03-01T14:03:53;14.37;;;8.03;;
7316;SDS011;3699;51.462;6.696;2023-03-01T14:06:21;11.07;;;7.83;;
7316;SDS011;3699;51.462;6.696;2023-03-01T14:08:51;21.20;;;8.73;;
7316;SDS011;3699;51.462;6.696;2023-03-01T14:11:35;12.93;;;8.17;;
7316;SDS011;3699;51.462;6.696;2023-03-01T14:14:31;13.57;;;7.83;;
7316;SDS011;3699;51.462;6.696;2023-03-01T14:19:54;15.70;;;9.07;;
7316;SDS011;3699;51.462;6.696;2023-03-01T14:22:23;16.00;;;8.40;;
7316;SDS011;3699;51.462;6.696;2023-03-01T14:24:54;11.40;;;8.00;;
7316;SDS011;3699;51.462;6.696;2023-03-01T14:27:23;11.90;;;7.77;;
7316;SDS011;3699;51.462;6.696;2023-03-01T14:29:56;11.10;;;7.53;;
7316;SDS011;3699;51.462;6.696;2023-03-01T14:32:26;10.43;;;7.07;;
7316;SDS011;3699;51.462;6.696;2023-03-01T14:34:54;10.37;;;7.43;;
7316;SDS011;3699;51.462;6.696;2023-03-01T14:37:24;13.80;;;7.43;;
7316;SDS011;3699;51.462;6.696;2023-03-01T14:39:53;9.57;;;6.87;;
7316;SDS011;3699;51.462;6.696;2023-03-01T14:42:20;11.50;;;7.77;;
7316;SDS011;3699;51.462;6.696;2023-03-01T14:44:49;13.10;;;8.90;;
7316;SDS011;3699;51.462;6.696;2023-03-01T14:47:20;14.87;;;8.10;;
7316;SDS011;3699;51.462;6.696;2023-03-01T14:49:54;10.20;;;6.97;;
7316;SDS011;3699;51.462;6.696;2023-03-01T14:52:25;11.17;;;7.90;;
7316;SDS011;3699;51.462;6.696;2023-03-01T14:54:59;11.33;;;7.50;;
7316;SDS011;3699;51.462;6.696;2023-03-01T14:57:29;12.63;;;8.07;;
7316;SDS011;3699;51.462;6.696;2023-03-01T14:59:57;13.00;;;8.60;;
7316;SDS011;3699;51.462;6.696;2023-03-01T15:02:28;15.23;;;9.13;;
7316;SDS011;3699;51.462;6.696;2023-03-01T15:04:58;14.03;;;8.63;;
7316;SDS011;3699;51.462;6.696;2023-03-01T15:07:27;13.80;;;8.73;;
7316;SDS011;3699;51.462;6.696;2023-03-01T15:09:57;15.30;;;8.77;;
7316;SDS011;3699;51.462;6.696;2023-03-01T15:12:37;13.80;;;8.20;;
7316;SDS011;3699;51.462;6.696;2023-03-01T15:15:22;13.70;;;8.40;;
7316;SDS011;3699;51.462;6.696;2023-03-01T15:17:58;12.60;;;8.43;;
7316;SDS011;3699;51.462;6.696;2023-03-01T15:20:28;13.10;;;9.27;;
7316;SDS011;3699;51.462;6.696;2023-03-01T15:23:00;15.23;;;7.90;;
7316;SDS011;3699;51.462;6.696;2023-03-01T15:25:28;11.63;;;7.60;;
7316;SDS011;3699;51.462;6.696;2023-03-01T15:27:56;11.63;;;8.23;;
7316;SDS011;3699;51.462;6.696;2023-03-01T15:30:26;15.90;;;8.63;;
7316;SDS011;3699;51.462;6.696;2023-03-01T15:33:19;13.83;;;9.43;;